createdAt,value
2022-10-30T00:00:47.058Z,92.37
2022-10-30T00:03:15.568Z,92.36
2022-10-30T00:05:47.958Z,92.39
2022-10-30T00:08:17.931Z,92.50
2022-10-30T00:10:46.314Z,92.54
2022-10-30T00:13:14.365Z,92.32
2022-10-30T00:15:47.944Z,92.33
2022-10-30T00:18:15.271Z,92.24
2022-10-30T00:20:42.169Z,92.17
2022-10-30T00:23:09.309Z,92.36
2022-10-30T00:25:36.935Z,92.91
2022-10-30T00:28:05.705Z,93.31
2022-10-30T00:30:33.778Z,93.82
2022-10-30T00:33:01.230Z,93.93
2022-10-30T00:35:28.620Z,94.02
2022-10-30T00:37:56.879Z,93.46
2022-10-30T00:40:24.394Z,93.22
2022-10-30T00:42:52.129Z,92.98
2022-10-30T00:45:19.803Z,92.84
2022-10-30T00:48:01.882Z,93.43
2022-10-30T00:50:36.768Z,93.63
2022-10-30T00:53:15.837Z,93.69
2022-10-30T00:55:56.127Z,92.58
2022-10-30T00:58:47.408Z,92.16
2022-10-30T01:01:20.160Z,92.11
2022-10-30T01:03:50.679Z,92.82
2022-10-30T01:06:18.723Z,93.05
2022-10-30T01:08:46.765Z,93.27
2022-10-30T01:11:14.185Z,93.77
2022-10-30T01:13:44.588Z,94.22
2022-10-30T01:16:36.242Z,94.67
2022-10-30T01:19:30.729Z,95.11
2022-10-30T01:22:26.425Z,95.07
2022-10-30T01:25:22.823Z,95.37
2022-10-30T01:28:46.733Z,95.59
2022-10-30T01:31:39.202Z,95.53
2022-10-30T01:34:20.853Z,94.30
2022-10-30T01:36:58.397Z,93.78
2022-10-30T01:39:28.217Z,93.33
2022-10-30T01:41:55.694Z,93.08
2022-10-30T01:44:30.145Z,93.70
2022-10-30T01:47:16.589Z,94.15
2022-10-30T01:50:14.758Z,94.64
2022-10-30T01:53:00.580Z,94.83
2022-10-30T01:56:01.790Z,95.04
2022-10-30T01:58:39.863Z,95.61
2022-10-30T02:01:11.749Z,95.59
2022-10-30T02:03:39.575Z,95.37
2022-10-30T02:06:08.040Z,95.20
2022-10-30T02:08:35.183Z,95.44
2022-10-30T02:11:02.682Z,95.53
2022-10-30T02:13:38.048Z,95.44
2022-10-30T02:16:06.053Z,95.47
2022-10-30T02:18:33.235Z,95.67
2022-10-30T02:21:01.571Z,96.04
2022-10-30T02:23:28.653Z,96.11
2022-10-30T02:25:55.700Z,96.03
2022-10-30T02:28:22.494Z,95.81
2022-10-30T02:30:49.607Z,94.33
2022-10-30T02:35:45.232Z,93.50
2022-10-30T02:38:12.369Z,94.05
2022-10-30T02:40:39.525Z,94.31
2022-10-30T02:43:08.000Z,94.79
2022-10-30T02:45:35.233Z,94.83
2022-10-30T02:48:03.145Z,95.46
2022-10-30T02:50:30.870Z,95.23
2022-10-30T02:52:59.960Z,95.53
2022-10-30T02:55:27.958Z,95.77
2022-10-30T02:57:55.135Z,95.86
2022-10-30T03:00:22.508Z,95.59
2022-10-30T03:02:55.598Z,95.74
2022-10-30T03:05:23.359Z,95.93
2022-10-30T03:07:51.548Z,95.82
2022-10-30T03:10:18.799Z,95.46
2022-10-30T03:12:45.868Z,95.25
2022-10-30T03:15:12.795Z,95.25
2022-10-30T03:20:12.854Z,94.79
2022-10-30T03:22:39.936Z,94.42
2022-10-30T03:25:07.138Z,93.84
2022-10-30T03:27:34.357Z,93.94
2022-10-30T03:30:01.520Z,93.84
2022-10-30T03:32:29.464Z,94.21
2022-10-30T03:34:56.557Z,94.55
2022-10-30T03:37:23.637Z,95.22
2022-10-30T03:39:50.497Z,95.08
2022-10-30T03:42:21.224Z,95.52
2022-10-30T03:44:50.088Z,95.69
2022-10-30T03:47:17.510Z,95.27
2022-10-30T03:49:46.208Z,95.19
2022-10-30T03:52:17.660Z,95.63
2022-10-30T03:54:44.683Z,95.96
2022-10-30T03:57:14.369Z,95.75
2022-10-30T03:59:58.702Z,95.87
2022-10-30T04:02:48.852Z,96.18
2022-10-30T04:05:21.510Z,96.35
2022-10-30T04:07:55.300Z,95.52
2022-10-30T04:10:23.891Z,94.81
2022-10-30T04:12:59.854Z,94.71
2022-10-30T04:15:27.103Z,93.93
2022-10-30T04:17:54.224Z,93.91
2022-10-30T04:20:23.194Z,93.91
2022-10-30T04:22:57.620Z,94.30
2022-10-30T04:25:26.219Z,94.65
2022-10-30T04:27:53.739Z,94.87
2022-10-30T04:30:22.549Z,95.25
2022-10-30T04:32:54.694Z,94.95
2022-10-30T04:35:25.703Z,94.49
2022-10-30T04:38:13.164Z,95.48
2022-10-30T04:40:43.700Z,95.56
2022-10-30T04:43:13.276Z,95.97
2022-10-30T04:45:42.187Z,96.20
2022-10-30T04:48:13.570Z,96.06
2022-10-30T04:50:43.677Z,95.78
2022-10-30T04:53:19.045Z,95.89
2022-10-30T04:55:54.444Z,96.08
2022-10-30T04:58:22.024Z,95.51
2022-10-30T05:01:02.001Z,95.30
2022-10-30T05:03:30.453Z,95.20
2022-10-30T05:06:04.519Z,95.08
2022-10-30T05:08:32.495Z,95.05
2022-10-30T05:11:05.683Z,95.45
2022-10-30T05:13:32.836Z,95.75
2022-10-30T05:16:00.096Z,95.68
2022-10-30T05:18:27.560Z,96.25
2022-10-30T05:20:55.136Z,96.26
2022-10-30T05:23:25.288Z,96.08
2022-10-30T05:25:54.745Z,95.96
2022-10-30T05:28:22.386Z,95.61
2022-10-30T05:30:57.679Z,94.89
2022-10-30T05:33:45.793Z,94.46
2022-10-30T05:36:13.869Z,94.48
2022-10-30T05:38:44.407Z,94.34
2022-10-30T05:41:21.023Z,94.22
2022-10-30T05:43:48.544Z,94.30
2022-10-30T05:46:16.131Z,94.44
2022-10-30T05:48:43.737Z,94.28
2022-10-30T05:51:11.219Z,94.02
2022-10-30T05:53:42.690Z,93.54
2022-10-30T05:56:10.245Z,93.50
2022-10-30T05:58:38.097Z,93.32
2022-10-30T06:01:07.413Z,92.80
2022-10-30T06:03:45.267Z,92.34
2022-10-30T06:06:15.622Z,91.70
2022-10-30T06:08:44.482Z,91.25
2022-10-30T06:11:33.157Z,90.94
2022-10-30T06:14:01.756Z,90.70
2022-10-30T06:16:43.861Z,90.28
2022-10-30T06:19:17.553Z,90.12
2022-10-30T06:21:51.747Z,89.62
2022-10-30T06:24:32.302Z,89.21
2022-10-30T06:27:19.548Z,89.13
2022-10-30T06:29:46.713Z,88.97
2022-10-30T06:32:14.045Z,88.81
2022-10-30T06:34:44.998Z,88.70
2022-10-30T06:37:14.191Z,87.89
2022-10-30T06:39:41.791Z,87.60
2022-10-30T06:42:27.249Z,86.71
2022-10-30T06:45:11.352Z,86.06
2022-10-30T06:47:40.538Z,85.61
2022-10-30T06:50:10.773Z,85.13
2022-10-30T06:52:38.690Z,84.82
2022-10-30T06:55:07.815Z,84.41
2022-10-30T06:57:57.657Z,84.05
2022-10-30T07:00:43.776Z,83.42
2022-10-30T07:03:40.340Z,83.20
2022-10-30T07:06:08.352Z,82.79
2022-10-30T07:08:35.725Z,82.17
2022-10-30T07:11:03.501Z,81.92
2022-10-30T07:13:49.125Z,81.02
2022-10-30T07:16:29.716Z,80.59
2022-10-30T07:18:59.357Z,79.86
2022-10-30T07:21:32.124Z,79.88
2022-10-30T07:24:01.589Z,79.12
2022-10-30T07:26:33.720Z,78.70
2022-10-30T07:29:07.409Z,78.21
2022-10-30T07:31:57.719Z,77.76
2022-10-30T07:34:48.968Z,77.36
2022-10-30T07:37:36.004Z,77.17
2022-10-30T07:40:12.751Z,77.22
2022-10-30T07:43:04.422Z,76.91
2022-10-30T07:46:01.496Z,76.85
2022-10-30T07:49:04.323Z,76.79
2022-10-30T07:51:53.058Z,76.32
2022-10-30T07:54:22.864Z,76.09
2022-10-30T07:56:50.796Z,75.88
2022-10-30T07:59:36.335Z,75.57
2022-10-30T08:02:33.282Z,74.97
2022-10-30T08:05:28.774Z,74.24
2022-10-30T08:08:11.259Z,73.03
2022-10-30T08:10:39.270Z,72.56
2022-10-30T08:13:06.679Z,71.81
2022-10-30T08:15:33.736Z,71.35
2022-10-30T08:18:02.119Z,70.65
2022-10-30T08:20:30.126Z,70.31
2022-10-30T08:22:58.842Z,69.91
2022-10-30T08:25:30.577Z,69.40
2022-10-30T08:28:06.385Z,68.98
2022-10-30T08:30:38.637Z,68.50
2022-10-30T08:33:13.886Z,67.96
2022-10-30T08:35:51.779Z,67.58
2022-10-30T08:38:22.504Z,67.59
2022-10-30T08:41:04.905Z,67.53
2022-10-30T08:43:36.380Z,67.12
2022-10-30T08:46:04.153Z,66.78
2022-10-30T08:48:31.368Z,66.68
2022-10-30T08:51:02.487Z,66.51
2022-10-30T08:53:35.589Z,66.40
2022-10-30T08:56:07.697Z,66.06
2022-10-30T08:59:05.888Z,65.30
2022-10-30T09:01:36.495Z,64.98
2022-10-30T09:04:16.165Z,64.06
2022-10-30T09:06:49.277Z,64.09
2022-10-30T09:09:35.547Z,63.50
2022-10-30T09:12:03.870Z,63.48
2022-10-30T09:14:37.758Z,62.47
2022-10-30T09:17:07.826Z,62.57
2022-10-30T09:19:36.896Z,62.22
2022-10-30T09:22:05.077Z,62.01
2022-10-30T09:24:34.303Z,61.73
2022-10-30T09:27:21.681Z,61.09
2022-10-30T09:29:50.470Z,60.92
2022-10-30T09:32:25.649Z,60.66
2022-10-30T09:35:03.727Z,60.76
2022-10-30T09:37:39.741Z,60.78
2022-10-30T09:40:37.233Z,60.69
2022-10-30T09:43:56.278Z,59.75
2022-10-30T09:46:38.597Z,60.13
2022-10-30T09:49:12.376Z,59.98
2022-10-30T09:51:43.358Z,59.94
2022-10-30T09:54:12.512Z,58.71
2022-10-30T09:57:01.144Z,58.84
2022-10-30T09:59:42.789Z,58.45
2022-10-30T10:02:29.510Z,57.89
2022-10-30T10:05:04.198Z,57.47
2022-10-30T10:08:14.909Z,56.61
2022-10-30T10:11:19.236Z,55.66
2022-10-30T10:13:58.962Z,55.22
2022-10-30T10:16:41.360Z,55.07
2022-10-30T10:19:31.561Z,54.82
2022-10-30T10:22:02.779Z,54.79
2022-10-30T10:24:40.242Z,54.30
2022-10-30T10:27:25.976Z,54.35
2022-10-30T10:30:20.449Z,54.18
2022-10-30T10:32:53.539Z,54.01
2022-10-30T10:35:51.976Z,53.31
2022-10-30T10:38:38.917Z,53.68
2022-10-30T10:41:41.858Z,53.04
2022-10-30T10:44:49.993Z,52.95
2022-10-30T10:47:35.625Z,52.26
2022-10-30T10:50:18.720Z,51.66
2022-10-30T10:53:12.027Z,51.69
2022-10-30T10:55:40.057Z,50.21
2022-10-30T10:58:30.985Z,50.47
2022-10-30T11:01:02.396Z,49.90
2022-10-30T11:03:53.048Z,49.51
2022-10-30T11:06:27.799Z,49.33
2022-10-30T11:09:20.341Z,50.07
2022-10-30T11:11:52.795Z,49.83
2022-10-30T11:14:21.680Z,49.63
2022-10-30T11:16:54.868Z,49.01
2022-10-30T11:19:23.061Z,49.22
2022-10-30T11:21:54.335Z,48.10
2022-10-30T11:24:35.502Z,47.79
2022-10-30T11:27:38.234Z,47.47
2022-10-30T11:30:06.863Z,46.72
2022-10-30T11:32:35.457Z,46.37
2022-10-30T11:35:08.850Z,45.62
2022-10-30T11:37:39.121Z,46.22
2022-10-30T11:40:14.099Z,45.68
2022-10-30T11:42:52.097Z,45.93
2022-10-30T11:45:25.089Z,45.21
2022-10-30T11:47:56.016Z,45.01
2022-10-30T11:50:29.721Z,44.87
2022-10-30T11:53:02.583Z,45.06
2022-10-30T11:55:40.010Z,45.04
2022-10-30T11:58:11.792Z,44.45
2022-10-30T12:00:44.913Z,43.32
2022-10-30T12:03:29.865Z,42.72
2022-10-30T12:06:20.456Z,43.21
2022-10-30T12:09:20.648Z,42.99
2022-10-30T12:11:49.500Z,43.05
2022-10-30T12:14:22.445Z,43.27
2022-10-30T12:16:55.787Z,42.90
2022-10-30T12:19:26.325Z,43.60
2022-10-30T12:21:57.120Z,43.42
2022-10-30T12:24:43.054Z,42.69
2022-10-30T12:27:22.565Z,42.91
2022-10-30T12:30:09.976Z,42.49
2022-10-30T12:32:52.417Z,42.46
2022-10-30T12:35:36.751Z,42.55
2022-10-30T12:38:12.290Z,41.65
2022-10-30T12:40:47.018Z,41.84
2022-10-30T12:43:29.339Z,41.91
2022-10-30T12:46:15.178Z,41.85
2022-10-30T12:48:53.556Z,42.70
2022-10-30T12:51:39.394Z,43.19
2022-10-30T12:54:25.154Z,42.62
2022-10-30T12:57:05.792Z,42.56
2022-10-30T12:59:39.993Z,43.06
2022-10-30T13:02:21.738Z,43.17
2022-10-30T13:04:56.094Z,43.15
2022-10-30T13:07:45.486Z,43.43
2022-10-30T13:10:31.620Z,43.11
2022-10-30T13:13:38.669Z,43.20
2022-10-30T13:16:27.698Z,43.09
2022-10-30T13:19:00.793Z,43.36
2022-10-30T13:21:46.828Z,43.70
2022-10-30T13:24:37.436Z,43.83
2022-10-30T13:27:25.224Z,44.05
2022-10-30T13:30:04.575Z,44.10
2022-10-30T13:33:09.321Z,44.15
2022-10-30T13:35:58.944Z,44.64
2022-10-30T13:38:32.860Z,44.94
2022-10-30T13:41:23.508Z,44.73
2022-10-30T13:44:03.532Z,45.07
2022-10-30T13:46:50.661Z,44.92
2022-10-30T13:49:33.528Z,45.69
2022-10-30T13:52:27.682Z,45.73
2022-10-30T13:55:09.755Z,45.43
2022-10-30T13:57:41.449Z,45.27
2022-10-30T14:00:32.751Z,44.95
2022-10-30T14:03:36.118Z,45.55
2022-10-30T14:06:12.479Z,45.56
2022-10-30T14:08:51.441Z,45.73
2022-10-30T14:11:18.687Z,46.33
2022-10-30T14:13:55.552Z,46.29
2022-10-30T14:16:36.002Z,46.66
2022-10-30T14:19:11.023Z,46.56
2022-10-30T14:21:43.777Z,46.80
2022-10-30T14:24:30.369Z,47.31
2022-10-30T14:27:03.667Z,47.76
2022-10-30T14:29:38.196Z,47.98
2022-10-30T14:32:14.290Z,48.68
2022-10-30T14:34:46.237Z,49.36
2022-10-30T14:37:13.878Z,49.75
2022-10-30T14:39:43.042Z,49.93
2022-10-30T14:42:31.635Z,50.21
2022-10-30T14:45:01.152Z,50.83
2022-10-30T14:47:46.426Z,51.20
2022-10-30T14:50:32.333Z,51.49
2022-10-30T14:53:00.354Z,51.58
2022-10-30T14:55:55.636Z,51.97
2022-10-30T14:58:29.291Z,52.48
2022-10-30T15:01:28.058Z,52.42
2022-10-30T15:04:24.678Z,52.86
2022-10-30T15:07:14.077Z,53.69
2022-10-30T15:10:07.288Z,54.78
2022-10-30T15:12:51.625Z,55.23
2022-10-30T15:15:19.799Z,56.08
2022-10-30T15:17:50.943Z,56.76
2022-10-30T15:20:25.660Z,57.15
2022-10-30T15:23:19.260Z,57.26
2022-10-30T15:25:50.540Z,57.83
2022-10-30T15:28:19.523Z,58.00
2022-10-30T15:31:20.553Z,58.86
2022-10-30T15:33:47.729Z,59.59
2022-10-30T15:36:40.595Z,59.81
2022-10-30T15:39:12.391Z,60.35
2022-10-30T15:41:55.422Z,60.84
2022-10-30T15:44:33.858Z,61.61
2022-10-30T15:47:03.614Z,61.91
2022-10-30T15:49:36.451Z,62.10
2022-10-30T15:52:13.589Z,62.72
2022-10-30T15:54:45.129Z,63.21
2022-10-30T15:57:56.894Z,63.49
2022-10-30T16:00:20.525Z,64.00
2022-10-30T16:02:51.666Z,64.18
2022-10-30T16:05:23.284Z,64.30
2022-10-30T16:07:50.694Z,64.92
2022-10-30T16:10:18.359Z,65.64
2022-10-30T16:12:45.698Z,65.99
2022-10-30T16:15:25.391Z,66.03
2022-10-30T16:18:23.974Z,66.25
2022-10-30T16:20:53.884Z,66.53
2022-10-30T16:23:21.938Z,66.79
2022-10-30T16:25:55.774Z,66.82
2022-10-30T16:28:35.234Z,66.92
2022-10-30T16:31:08.568Z,67.09
2022-10-30T16:33:37.424Z,67.44
2022-10-30T16:36:06.054Z,67.56
2022-10-30T16:38:38.348Z,67.60
2022-10-30T16:41:07.507Z,67.96
2022-10-30T16:43:35.619Z,68.09
2022-10-30T16:46:14.624Z,68.28
2022-10-30T16:48:57.042Z,69.03
2022-10-30T16:51:24.605Z,69.60
2022-10-30T16:53:53.142Z,69.97
2022-10-30T16:56:25.066Z,69.91
2022-10-30T16:59:21.550Z,69.61
2022-10-30T17:01:58.133Z,69.43
2022-10-30T17:04:25.863Z,70.21
2022-10-30T17:07:07.794Z,70.91
2022-10-30T17:09:37.899Z,71.26
2022-10-30T17:12:14.682Z,71.80
2022-10-30T17:14:50.472Z,72.18
2022-10-30T17:17:30.154Z,72.09
2022-10-30T17:20:30.000Z,72.08
2022-10-30T17:23:27.802Z,72.29
2022-10-30T17:25:55.637Z,72.67
2022-10-30T17:28:33.699Z,73.10
2022-10-30T17:31:21.086Z,73.22
2022-10-30T17:34:04.669Z,73.42
2022-10-30T17:36:31.746Z,72.95
2022-10-30T17:38:58.721Z,72.99
2022-10-30T17:41:25.942Z,72.83
2022-10-30T17:43:56.001Z,72.93
2022-10-30T17:46:23.933Z,72.96
2022-10-30T17:48:51.152Z,72.88
2022-10-30T17:51:19.132Z,72.81
2022-10-30T17:53:48.465Z,72.53
2022-10-30T17:56:31.593Z,72.71
2022-10-30T17:58:58.609Z,72.71
2022-10-30T18:01:27.269Z,73.20
2022-10-30T18:03:55.694Z,73.32
2022-10-30T18:06:28.814Z,73.40
2022-10-30T18:08:56.150Z,73.54
2022-10-30T18:11:25.010Z,73.72
2022-10-30T18:13:52.903Z,73.96
2022-10-30T18:16:20.225Z,74.66
2022-10-30T18:19:28.226Z,74.41
2022-10-30T18:22:27.002Z,74.85
2022-10-30T18:25:24.599Z,74.74
2022-10-30T18:27:52.177Z,74.83
2022-10-30T18:30:20.963Z,74.97
2022-10-30T18:32:48.650Z,74.79
2022-10-30T18:35:18.617Z,74.62
2022-10-30T18:37:45.824Z,73.89
2022-10-30T18:40:12.935Z,73.36
2022-10-30T18:42:40.082Z,72.98
2022-10-30T18:45:15.332Z,73.14
2022-10-30T18:50:31.111Z,72.99
2022-10-30T18:53:05.982Z,72.72
2022-10-30T18:55:38.750Z,72.56
2022-10-30T18:58:07.673Z,72.36
2022-10-30T19:00:58.101Z,71.81
2022-10-30T19:03:22.991Z,71.81
2022-10-30T19:05:51.664Z,71.86
2022-10-30T19:08:18.783Z,71.86
2022-10-30T19:10:47.995Z,71.96
2022-10-30T19:13:20.991Z,72.17
2022-10-30T19:15:55.960Z,72.04
2022-10-30T19:18:27.638Z,72.29
2022-10-30T19:21:14.681Z,72.41
2022-10-30T19:23:42.131Z,72.57
2022-10-30T19:26:09.207Z,73.36
2022-10-30T19:28:38.343Z,72.97
2022-10-30T19:31:05.506Z,73.54
2022-10-30T19:33:32.832Z,73.15
2022-10-30T19:36:02.468Z,72.65
2022-10-30T19:38:30.391Z,72.76
2022-10-30T19:40:59.341Z,72.90
2022-10-30T19:43:28.397Z,73.13
2022-10-30T19:45:58.048Z,73.31
2022-10-30T19:48:55.411Z,73.34
2022-10-30T19:51:13.345Z,72.92
2022-10-30T19:53:41.532Z,72.81
2022-10-30T19:56:11.537Z,72.95
2022-10-30T19:58:38.525Z,73.09
2022-10-30T20:01:07.876Z,72.95
2022-10-30T20:03:35.570Z,73.18
2022-10-30T20:06:02.792Z,73.57
2022-10-30T20:08:33.115Z,73.16
2022-10-30T20:11:01.530Z,73.36
2022-10-30T20:13:31.376Z,73.79
2022-10-30T20:16:05.629Z,74.16
2022-10-30T20:18:36.153Z,74.50
2022-10-30T20:21:10.621Z,74.46
2022-10-30T20:23:42.704Z,74.78
2022-10-30T20:26:30.264Z,74.96
2022-10-30T20:29:01.268Z,75.38
2022-10-30T20:31:29.137Z,75.60
2022-10-30T20:33:56.408Z,75.77
2022-10-30T20:36:24.144Z,76.01
2022-10-30T20:38:51.284Z,76.09
2022-10-30T20:41:24.287Z,76.15
2022-10-30T20:43:52.133Z,76.26
2022-10-30T20:46:19.846Z,76.55
2022-10-30T20:48:47.935Z,76.52
2022-10-30T20:51:15.053Z,76.62
2022-10-30T20:53:42.342Z,76.91
2022-10-30T20:56:09.481Z,77.20
2022-10-30T20:58:36.684Z,77.42
2022-10-30T21:01:07.444Z,77.60
2022-10-30T21:03:35.785Z,77.82
2022-10-30T21:06:03.201Z,77.99
2022-10-30T21:08:34.615Z,78.38
2022-10-30T21:11:13.924Z,78.37
2022-10-30T21:13:41.017Z,78.88
2022-10-30T21:16:21.468Z,79.20
2022-10-30T21:18:54.283Z,79.18
2022-10-30T21:21:26.079Z,79.25
2022-10-30T21:23:56.716Z,79.17
2022-10-30T21:26:24.829Z,79.52
2022-10-30T21:28:52.294Z,79.96
2022-10-30T21:31:19.513Z,79.97
2022-10-30T21:33:47.288Z,79.94
2022-10-30T21:36:20.187Z,80.05
2022-10-30T21:38:47.268Z,80.44
2022-10-30T21:41:17.399Z,80.39
2022-10-30T21:43:50.120Z,80.72
2022-10-30T21:46:17.550Z,80.92
2022-10-30T21:48:44.812Z,81.42
2022-10-30T21:51:15.083Z,81.67
2022-10-30T21:53:43.396Z,81.61
2022-10-30T21:56:14.042Z,81.76
2022-10-30T21:58:41.510Z,82.03
2022-10-30T22:01:17.960Z,82.35
2022-10-30T22:03:45.523Z,82.50
2022-10-30T22:06:14.623Z,82.06
2022-10-30T22:08:44.608Z,81.26
2022-10-30T22:11:12.064Z,80.78
2022-10-30T22:13:39.926Z,80.36
2022-10-30T22:16:10.943Z,79.88
2022-10-30T22:18:38.292Z,79.74
2022-10-30T22:21:07.607Z,79.82
2022-10-30T22:23:36.546Z,79.81
2022-10-30T22:26:06.730Z,79.73
2022-10-30T22:28:35.169Z,79.60
2022-10-30T22:31:16.006Z,79.76
2022-10-30T22:33:44.162Z,79.83
2022-10-30T22:36:20.035Z,79.94
2022-10-30T22:38:48.727Z,80.28
2022-10-30T22:41:16.950Z,80.73
2022-10-30T22:43:45.464Z,80.77
2022-10-30T22:46:14.171Z,80.99
2022-10-30T22:48:41.717Z,81.15
2022-10-30T22:51:13.551Z,81.40
2022-10-30T22:53:46.419Z,81.93
2022-10-30T22:56:15.103Z,82.14
2022-10-30T22:58:42.270Z,82.21
2022-10-30T23:01:12.279Z,82.65
2022-10-30T23:03:39.552Z,82.84
2022-10-30T23:06:07.593Z,83.16
2022-10-30T23:08:35.011Z,83.05
2022-10-30T23:11:02.846Z,82.99
2022-10-30T23:13:31.043Z,83.13
2022-10-30T23:16:07.221Z,82.77
2022-10-30T23:18:35.369Z,82.59
2022-10-30T23:21:08.923Z,82.65
2022-10-30T23:23:37.254Z,82.90
2022-10-30T23:26:10.967Z,82.83
2022-10-30T23:28:41.354Z,82.90
2022-10-30T23:31:21.449Z,82.72
2022-10-30T23:33:51.258Z,83.04
2022-10-30T23:36:18.309Z,83.15
2022-10-30T23:38:45.397Z,82.76
2022-10-30T23:41:12.401Z,82.30
2022-10-30T23:43:39.340Z,81.81
2022-10-30T23:46:06.592Z,81.78
2022-10-30T23:48:33.579Z,81.62
2022-10-30T23:51:11.085Z,81.68
2022-10-30T23:53:39.888Z,82.03
2022-10-30T23:56:07.165Z,81.78
2022-10-30T23:58:34.563Z,81.31
